Time;durP1;ratioP1;P1;durP2;ratioP2;P2;SDS_P1;SDS_P2;PMS_P1;PMS_P2;Temp;Humidity;BMP_temperature;BMP_pressure;BME280_temperature;BME280_humidity;BME280_pressure;Samples;Min_cycle;Max_cycle;Signal;HPM_P1;HPM_P2
2022/03/19 00:00:45;;;;;;;;;;;;;;;;;;5033148;28;19909;-59
2022/03/19 00:03:10;;;;;;;;;;;;;;;;;;5054734;28;19978;-59
2022/03/19 00:05:35;;;;;;;;;;;;;;;;;;5054294;28;19916;-59
2022/03/19 00:08:00;;;;;;;;;;;;;;;;;;5054753;28;19954;-59
2022/03/19 00:10:26;;;;;;;;;;;;;;;;;;5055232;28;19905;-59
2022/03/19 00:12:51;;;;;;;;;;;;;;;;;;5054496;28;19991;-59
2022/03/19 00:15:16;;;;;;;;;;;;;;;;;;5054326;28;19909;-59
2022/03/19 00:17:41;;;;;;;;;;;;;;;;;;5053919;28;19916;-59
2022/03/19 00:20:07;;;;;;;;;;;;;;;;;;5035861;28;20256;-60
2022/03/19 00:22:32;;;;;;;;;;;;;;;;;;5053845;28;20357;-60
2022/03/19 00:24:58;;;;;;;;;;;;;;;;;;5053247;28;19971;-59
2022/03/19 00:27:24;;;;;;;;;;;;;;;;;;5053631;28;19913;-59
2022/03/19 00:29:49;;;;;;;;;;;;;;;;;;5053231;28;19909;-59
2022/03/19 00:32:14;;;;;;;;;;;;;;;;;;5052573;28;20253;-59
2022/03/19 00:34:40;;;;;;;;;;;;;;;;;;5052387;28;19909;-60
2022/03/19 00:37:05;;;;;;;;;;;;;;;;;;5053033;28;19905;-59
2022/03/19 00:39:30;;;;;;;;;;;;;;;;;;5052987;28;19964;-60
2022/03/19 00:41:55;;;;;;;;;;;;;;;;;;5035442;28;20300;-59
2022/03/19 00:44:21;;;;;;;;;;;;;;;;;;5052991;28;19954;-60
2022/03/19 00:46:46;;;;;;;;;;;;;;;;;;5035198;28;20207;-60
2022/03/19 00:49:11;;;;;;;;;;;;;;;;;;5052907;28;19954;-60
2022/03/19 00:51:38;;;;;;;;;;;;;;;;;;5053143;28;19909;-60
2022/03/19 00:54:04;;;;;;;;;;;;;;;;;;5045039;28;19909;-60
2022/03/19 00:56:30;;;;;;;;;;;;;;;;;;5029611;28;19909;-60
2022/03/19 00:58:55;;;;;;;;;;;;;;;;;;5032762;28;20258;-60
2022/03/19 01:01:20;;;;;;;;;;;;;;;;;;5032820;28;20305;-60
2022/03/19 01:03:45;;;;;;;;;;;;;;;;;;5015446;28;20338;-59
2022/03/19 01:06:11;;;;;;;;;;;;;;;;;;5013861;28;20468;-60
2022/03/19 01:08:36;;;;;;;;;;;;;;;;;;5032936;28;19932;-59
2022/03/19 01:11:02;;;;;;;;;;;;;;;;;;5033338;28;19910;-60
2022/03/19 01:13:27;;;;;;;;;;;;;;;;;;5032540;28;19972;-60
2022/03/19 01:15:52;;;;;;;;;;;;;;;;;;4970757;28;1772783;-60
2022/03/19 01:18:17;;;;;;;;;;;;;;;;;;5033743;28;20335;-60
2022/03/19 01:20:43;;;;;;;;;;;;;;;;;;5016344;28;19909;-60
2022/03/19 01:23:08;;;;;;;;;;;;;;;;;;5034026;28;20027;-60
2022/03/19 01:25:33;;;;;;;;;;;;;;;;;;5033144;28;19992;-60
2022/03/19 01:27:58;;;;;;;;;;;;;;;;;;5033545;28;20254;-60
2022/03/19 01:30:24;;;;;;;;;;;;;;;;;;5033536;28;20019;-60
2022/03/19 01:32:50;;;;;;;;;;;;;;;;;;5033359;28;20008;-60
2022/03/19 01:35:16;;;;;;;;;;;;;;;;;;5033486;28;19956;-60
2022/03/19 01:37:41;;;;;;;;;;;;;;;;;;5033145;28;19909;-60
2022/03/19 01:40:06;;;;;;;;;;;;;;;;;;5033684;28;19920;-60
2022/03/19 01:42:31;;;;;;;;;;;;;;;;;;5016560;28;19955;-60
2022/03/19 01:44:56;;;;;;;;;;;;;;;;;;5033434;28;19917;-60
2022/03/19 01:47:23;;;;;;;;;;;;;;;;;;5032998;28;19939;-59
2022/03/19 01:49:48;;;;;;;;;;;;;;;;;;5032964;28;20325;-60
2022/03/19 01:52:13;;;;;;;;;;;;;;;;;;5033728;28;19937;-60
2022/03/19 01:54:38;;;;;;;;;;;;;;;;;;5015814;28;20266;-60
2022/03/19 01:57:04;;;;;;;;;;;;;;;;;;5033410;28;19905;-60
2022/03/19 01:59:29;;;;;;;;;;;;;;;;;;5015939;28;19916;-60
2022/03/19 02:01:54;;;;;;;;;;;;;;;;;;5033338;28;19912;-60
2022/03/19 02:04:21;;;;;;;;;;;;;;;;;;5015783;28;20361;-60
2022/03/19 02:06:46;;;;;;;;;;;;;;;;;;5015570;28;19917;-60
2022/03/19 02:09:11;;;;;;;;;;;;;;;;;;5015885;28;19909;-60
2022/03/19 02:11:37;;;;;;;;;;;;;;;;;;5033330;28;19917;-60
2022/03/19 02:14:02;;;;;;;;;;;;;;;;;;5033844;28;20401;-60
2022/03/19 02:16:27;;;;;;;;;;;;;;;;;;5034152;28;19917;-60
2022/03/19 02:18:52;;;;;;;;;;;;;;;;;;5018939;28;19909;-60
2022/03/19 02:21:17;;;;;;;;;;;;;;;;;;5036412;28;20008;-60
2022/03/19 02:26:27;;;;;;;;;;;;;;;;;;5036484;28;20400;-59
2022/03/19 02:28:52;;;;;;;;;;;;;;;;;;5036279;28;19960;-59
2022/03/19 02:31:18;;;;;;;;;;;;;;;;;;5036238;28;19916;-59
2022/03/19 02:33:43;;;;;;;;;;;;;;;;;;5018421;28;19948;-60
2022/03/19 02:36:08;;;;;;;;;;;;;;;;;;5042952;28;19940;-59
2022/03/19 02:38:34;;;;;;;;;;;;;;;;;;5056328;28;20403;-59
2022/03/19 02:40:59;;;;;;;;;;;;;;;;;;5053784;28;20007;-65
2022/03/19 02:43:24;;;;;;;;;;;;;;;;;;5036233;28;20415;-59
2022/03/19 02:45:49;;;;;;;;;;;;;;;;;;5029878;28;20311;-59
2022/03/19 02:48:14;;;;;;;;;;;;;;;;;;5056426;28;19913;-59
2022/03/19 02:50:41;;;;;;;;;;;;;;;;;;5056109;28;19908;-59
2022/03/19 02:53:07;;;;;;;;;;;;;;;;;;5055838;28;20050;-59
2022/03/19 02:55:32;;;;;;;;;;;;;;;;;;5055727;28;19904;-60
2022/03/19 02:57:57;;;;;;;;;;;;;;;;;;5056277;28;20003;-61
2022/03/19 03:00:22;;;;;;;;;;;;;;;;;;5038501;28;19904;-59
2022/03/19 03:02:47;;;;;;;;;;;;;;;;;;5055503;28;20357;-60
2022/03/19 03:05:13;;;;;;;;;;;;;;;;;;5055527;28;19905;-59
2022/03/19 03:07:38;;;;;;;;;;;;;;;;;;5055713;28;20238;-59
2022/03/19 03:10:03;;;;;;;;;;;;;;;;;;5037759;28;19952;-59
2022/03/19 03:12:29;;;;;;;;;;;;;;;;;;5038239;28;20000;-59
2022/03/19 03:14:55;;;;;;;;;;;;;;;;;;5055716;28;19927;-60
2022/03/19 03:17:20;;;;;;;;;;;;;;;;;;5056561;28;19913;-60
2022/03/19 03:19:46;;;;;;;;;;;;;;;;;;5055781;28;19935;-61
2022/03/19 03:22:11;;;;;;;;;;;;;;;;;;5056383;28;19912;-61
2022/03/19 03:24:36;;;;;;;;;;;;;;;;;;5055781;28;19913;-61
2022/03/19 03:27:01;;;;;;;;;;;;;;;;;;5055304;28;19963;-61
2022/03/19 03:29:26;;;;;;;;;;;;;;;;;;5054766;28;20057;-61
2022/03/19 03:31:53;;;;;;;;;;;;;;;;;;5038199;28;19908;-61
2022/03/19 03:34:19;;;;;;;;;;;;;;;;;;5055525;28;20345;-61
2022/03/19 03:36:44;;;;;;;;;;;;;;;;;;5055116;28;19909;-61
2022/03/19 03:39:09;;;;;;;;;;;;;;;;;;5037271;28;19912;-61
2022/03/19 03:41:34;;;;;;;;;;;;;;;;;;5037666;28;19913;-61
2022/03/19 03:44:00;;;;;;;;;;;;;;;;;;5055056;28;20376;-61
2022/03/19 03:46:25;;;;;;;;;;;;;;;;;;5055097;28;19917;-61
2022/03/19 03:48:51;;;;;;;;;;;;;;;;;;5054664;28;19915;-61
2022/03/19 03:51:16;;;;;;;;;;;;;;;;;;5052418;28;19919;-61
2022/03/19 03:53:41;;;;;;;;;;;;;;;;;;5054846;28;19909;-61
2022/03/19 03:56:06;;;;;;;;;;;;;;;;;;5054903;28;19913;-61
2022/03/19 03:58:32;;;;;;;;;;;;;;;;;;5054567;28;19974;-61
2022/03/19 04:00:57;;;;;;;;;;;;;;;;;;5054753;28;20214;-61
2022/03/19 04:03:22;;;;;;;;;;;;;;;;;;5054456;28;19962;-61
2022/03/19 04:05:47;;;;;;;;;;;;;;;;;;5054342;28;20307;-62
2022/03/19 04:08:13;;;;;;;;;;;;;;;;;;5054882;28;19912;-61
2022/03/19 04:10:38;;;;;;;;;;;;;;;;;;5054621;28;19913;-61
2022/03/19 04:13:03;;;;;;;;;;;;;;;;;;5054689;28;20014;-62
2022/03/19 04:15:28;;;;;;;;;;;;;;;;;;5054487;28;19912;-61
2022/03/19 04:17:54;;;;;;;;;;;;;;;;;;5052233;28;19909;-61
2022/03/19 04:20:19;;;;;;;;;;;;;;;;;;5041367;28;20238;-61
2022/03/19 04:22:44;;;;;;;;;;;;;;;;;;5017023;28;19999;-61
2022/03/19 04:25:10;;;;;;;;;;;;;;;;;;5033224;28;19913;-61
2022/03/19 04:27:35;;;;;;;;;;;;;;;;;;5034325;28;19912;-61
2022/03/19 04:30:01;;;;;;;;;;;;;;;;;;5017250;28;20008;-61
2022/03/19 04:32:26;;;;;;;;;;;;;;;;;;5034082;28;19958;-61
2022/03/19 04:34:52;;;;;;;;;;;;;;;;;;5034292;28;20282;-61
2022/03/19 04:37:17;;;;;;;;;;;;;;;;;;5033042;28;19910;-61
2022/03/19 04:39:42;;;;;;;;;;;;;;;;;;5015916;28;20261;-61
2022/03/19 04:42:07;;;;;;;;;;;;;;;;;;5033876;28;19909;-61
2022/03/19 04:44:33;;;;;;;;;;;;;;;;;;5034410;28;19916;-61
2022/03/19 04:46:58;;;;;;;;;;;;;;;;;;5016814;28;19909;-61
2022/03/19 04:49:23;;;;;;;;;;;;;;;;;;5034345;28;20366;-61
2022/03/19 04:51:49;;;;;;;;;;;;;;;;;;5032967;28;19959;-61
2022/03/19 04:54:15;;;;;;;;;;;;;;;;;;5034040;28;19956;-61
2022/03/19 04:56:40;;;;;;;;;;;;;;;;;;5033941;28;19909;-61
2022/03/19 04:59:06;;;;;;;;;;;;;;;;;;5035956;28;19939;-61
2022/03/19 05:01:32;;;;;;;;;;;;;;;;;;5053877;28;19958;-61
2022/03/19 05:03:57;;;;;;;;;;;;;;;;;;5053809;28;19909;-61
2022/03/19 05:06:22;;;;;;;;;;;;;;;;;;5053751;28;19913;-61
2022/03/19 05:11:12;;;;;;;;;;;;;;;;;;5036439;28;19913;-61
2022/03/19 05:11:32;;;;;;;;;;;;;;;;;;5038333;28;20278;-61
2022/03/19 05:13:59;;;;;;;;;;;;;;;;;;5033837;28;19909;-61
2022/03/19 05:16:24;;;;;;;;;;;;;;;;;;5034065;28;19913;-61
2022/03/19 05:18:49;;;;;;;;;;;;;;;;;;5033528;28;19917;-61
2022/03/19 05:21:14;;;;;;;;;;;;;;;;;;5033485;28;19917;-61
2022/03/19 05:23:40;;;;;;;;;;;;;;;;;;5048463;28;19909;-61
2022/03/19 05:26:05;;;;;;;;;;;;;;;;;;5053236;28;20350;-61
2022/03/19 05:28:30;;;;;;;;;;;;;;;;;;5053284;28;20026;-61
2022/03/19 05:30:57;;;;;;;;;;;;;;;;;;5043334;28;20361;-61
2022/03/19 05:34:29;;;;;;;;;;;;;;;;;;5050645;28;19909;-61
2022/03/19 05:36:08;;;;;;;;;;;;;;;;;;5053274;28;19913;-61
2022/03/19 05:38:33;;;;;;;;;;;;;;;;;;5053194;28;19905;-61
2022/03/19 05:40:59;;;;;;;;;;;;;;;;;;5049559;28;19908;-61
2022/03/19 05:43:24;;;;;;;;;;;;;;;;;;5035370;28;19932;-61
2022/03/19 05:45:50;;;;;;;;;;;;;;;;;;5044247;28;19951;-61
2022/03/19 05:48:16;;;;;;;;;;;;;;;;;;5043414;28;19917;-61
2022/03/19 05:50:41;;;;;;;;;;;;;;;;;;5053606;28;20338;-61
2022/03/19 05:53:06;;;;;;;;;;;;;;;;;;5035943;28;19913;-61
2022/03/19 05:55:31;;;;;;;;;;;;;;;;;;5057213;28;20254;-59
2022/03/19 05:57:56;;;;;;;;;;;;;;;;;;5046672;28;19953;-61
2022/03/19 06:00:22;;;;;;;;;;;;;;;;;;5036774;28;19909;-61
2022/03/19 06:02:47;;;;;;;;;;;;;;;;;;5036875;28;20000;-61
2022/03/19 06:05:12;;;;;;;;;;;;;;;;;;5037144;28;19905;-61
2022/03/19 06:07:38;;;;;;;;;;;;;;;;;;5036916;28;20373;-59
2022/03/19 06:10:05;;;;;;;;;;;;;;;;;;5037665;28;19913;-61
2022/03/19 06:12:30;;;;;;;;;;;;;;;;;;5037154;28;19905;-61
2022/03/19 06:14:55;;;;;;;;;;;;;;;;;;5036486;28;20445;-61
2022/03/19 06:17:21;;;;;;;;;;;;;;;;;;5037475;28;19913;-61
2022/03/19 06:19:46;;;;;;;;;;;;;;;;;;5035610;28;19909;-61
2022/03/19 06:22:11;;;;;;;;;;;;;;;;;;5037267;28;19909;-59
2022/03/19 06:24:36;;;;;;;;;;;;;;;;;;5036408;28;19913;-59
2022/03/19 06:27:01;;;;;;;;;;;;;;;;;;5035860;28;19920;-60
2022/03/19 06:29:27;;;;;;;;;;;;;;;;;;5056762;28;19955;-60
2022/03/19 06:31:52;;;;;;;;;;;;;;;;;;5056714;28;19948;-60
2022/03/19 06:34:17;;;;;;;;;;;;;;;;;;5038636;28;20342;-60
2022/03/19 06:39:26;;;;;;;;;;;;;;;;;;5055934;28;19913;-60
2022/03/19 06:41:51;;;;;;;;;;;;;;;;;;5037321;28;20412;-60
2022/03/19 06:44:17;;;;;;;;;;;;;;;;;;5036650;28;20349;-60
2022/03/19 06:46:42;;;;;;;;;;;;;;;;;;5036548;28;19913;-61
2022/03/19 06:49:07;;;;;;;;;;;;;;;;;;5016465;28;19940;-59
2022/03/19 06:51:32;;;;;;;;;;;;;;;;;;5036256;28;19912;-59
2022/03/19 06:53:58;;;;;;;;;;;;;;;;;;5036536;28;19909;-59
2022/03/19 06:56:23;;;;;;;;;;;;;;;;;;5036389;28;20306;-59
2022/03/19 06:58:49;;;;;;;;;;;;;;;;;;5034639;28;20261;-59
2022/03/19 07:01:17;;;;;;;;;;;;;;;;;;5054385;28;19915;-59
2022/03/19 07:03:43;;;;;;;;;;;;;;;;;;5055914;28;19915;-59
2022/03/19 07:06:08;;;;;;;;;;;;;;;;;;5056100;28;19916;-59
2022/03/19 07:08:33;;;;;;;;;;;;;;;;;;5055913;28;19912;-59
2022/03/19 07:10:59;;;;;;;;;;;;;;;;;;5056101;28;20002;-61
2022/03/19 07:13:25;;;;;;;;;;;;;;;;;;5055410;28;20271;-61
2022/03/19 07:15:51;;;;;;;;;;;;;;;;;;5055547;28;19923;-61
2022/03/19 07:18:16;;;;;;;;;;;;;;;;;;5055635;28;19909;-60
2022/03/19 07:20:42;;;;;;;;;;;;;;;;;;5055629;28;19913;-60
2022/03/19 07:23:07;;;;;;;;;;;;;;;;;;5055754;28;19919;-61
2022/03/19 07:25:32;;;;;;;;;;;;;;;;;;5055245;28;19928;-61
2022/03/19 07:27:59;;;;;;;;;;;;;;;;;;5055083;28;19943;-60
2022/03/19 07:30:24;;;;;;;;;;;;;;;;;;5052961;28;19908;-61
2022/03/19 07:32:50;;;;;;;;;;;;;;;;;;5055709;28;20374;-60
2022/03/19 07:35:15;;;;;;;;;;;;;;;;;;5055341;28;19909;-60
2022/03/19 07:37:41;;;;;;;;;;;;;;;;;;5053001;28;19912;-61
2022/03/19 07:40:06;;;;;;;;;;;;;;;;;;5051952;28;19920;-61
2022/03/19 07:42:31;;;;;;;;;;;;;;;;;;5017185;28;19934;-61
2022/03/19 07:44:57;;;;;;;;;;;;;;;;;;5035240;28;19996;-61
2022/03/19 07:47:22;;;;;;;;;;;;;;;;;;5032731;28;19921;-61
2022/03/19 07:49:47;;;;;;;;;;;;;;;;;;5035105;28;20269;-61
2022/03/19 07:52:12;;;;;;;;;;;;;;;;;;5034815;28;20246;-61
2022/03/19 07:54:37;;;;;;;;;;;;;;;;;;5035321;28;19913;-61
2022/03/19 07:57:03;;;;;;;;;;;;;;;;;;5035067;28;20269;-61
2022/03/19 07:59:28;;;;;;;;;;;;;;;;;;5054748;28;19908;-61
2022/03/19 08:01:54;;;;;;;;;;;;;;;;;;5054870;28;19978;-61
2022/03/19 08:04:19;;;;;;;;;;;;;;;;;;5055096;28;19911;-61
2022/03/19 08:06:44;;;;;;;;;;;;;;;;;;5054635;28;20046;-61
2022/03/19 08:09:09;;;;;;;;;;;;;;;;;;5054399;28;19919;-61
2022/03/19 08:11:35;;;;;;;;;;;;;;;;;;5054299;28;19909;-61
2022/03/19 08:14:00;;;;;;;;;;;;;;;;;;5053918;28;19912;-61
2022/03/19 08:16:25;;;;;;;;;;;;;;;;;;5054598;28;20276;-61
2022/03/19 08:18:51;;;;;;;;;;;;;;;;;;5054537;28;19916;-61
2022/03/19 08:21:16;;;;;;;;;;;;;;;;;;5054201;28;19919;-60
2022/03/19 08:23:41;;;;;;;;;;;;;;;;;;5050225;28;19912;-60
2022/03/19 08:26:06;;;;;;;;;;;;;;;;;;5046326;28;19912;-60
2022/03/19 08:28:32;;;;;;;;;;;;;;;;;;5054091;28;19996;-60
2022/03/19 08:30:58;;;;;;;;;;;;;;;;;;5054540;28;19955;-60
2022/03/19 08:33:23;;;;;;;;;;;;;;;;;;5051908;28;19904;-61
2022/03/19 08:35:49;;;;;;;;;;;;;;;;;;5054759;28;19912;-60
2022/03/19 08:40:58;;;;;;;;;;;;;;;;;;5054171;28;20403;-61
2022/03/19 08:43:23;;;;;;;;;;;;;;;;;;5054208;28;19909;-60
2022/03/19 08:45:48;;;;;;;;;;;;;;;;;;5054114;28;19908;-61
2022/03/19 08:48:13;;;;;;;;;;;;;;;;;;5052694;28;19916;-61
2022/03/19 08:50:39;;;;;;;;;;;;;;;;;;5053979;28;20288;-61
2022/03/19 08:53:04;;;;;;;;;;;;;;;;;;5052016;28;20315;-61
2022/03/19 08:55:29;;;;;;;;;;;;;;;;;;5054335;28;20291;-61
2022/03/19 08:57:54;;;;;;;;;;;;;;;;;;5052800;28;20308;-61
2022/03/19 09:00:20;;;;;;;;;;;;;;;;;;5054444;28;19919;-61
2022/03/19 09:02:45;;;;;;;;;;;;;;;;;;5053910;28;19943;-61
2022/03/19 09:05:10;;;;;;;;;;;;;;;;;;5053916;28;19913;-61
2022/03/19 09:07:36;;;;;;;;;;;;;;;;;;5036033;28;19913;-61
2022/03/19 09:10:01;;;;;;;;;;;;;;;;;;5036221;28;19920;-61
2022/03/19 09:12:26;;;;;;;;;;;;;;;;;;5053821;28;19913;-59
2022/03/19 09:14:51;;;;;;;;;;;;;;;;;;5048564;28;20235;-60
2022/03/19 09:17:17;;;;;;;;;;;;;;;;;;5029182;28;20357;-60
2022/03/19 09:19:42;;;;;;;;;;;;;;;;;;5044801;28;20492;-60
2022/03/19 09:22:07;;;;;;;;;;;;;;;;;;5034087;28;19913;-60
2022/03/19 09:24:32;;;;;;;;;;;;;;;;;;5033473;28;19909;-59
2022/03/19 09:26:58;;;;;;;;;;;;;;;;;;5035628;28;19919;-59
2022/03/19 09:29:24;;;;;;;;;;;;;;;;;;5037615;28;19920;-59
2022/03/19 09:31:49;;;;;;;;;;;;;;;;;;5057769;28;20011;-60
2022/03/19 09:34:14;;;;;;;;;;;;;;;;;;5039820;28;19909;-60
2022/03/19 09:36:41;;;;;;;;;;;;;;;;;;5042170;28;19909;-60
2022/03/19 09:39:06;;;;;;;;;;;;;;;;;;5037669;28;19909;-60
2022/03/19 09:41:32;;;;;;;;;;;;;;;;;;5037589;28;19928;-60
2022/03/19 09:43:57;;;;;;;;;;;;;;;;;;5037460;28;19968;-60
2022/03/19 09:46:22;;;;;;;;;;;;;;;;;;5037190;28;19913;-61
2022/03/19 09:48:47;;;;;;;;;;;;;;;;;;5037249;28;19909;-61
2022/03/19 09:51:13;;;;;;;;;;;;;;;;;;5035183;28;20243;-61
2022/03/19 09:53:38;;;;;;;;;;;;;;;;;;5019733;28;20262;-61
2022/03/19 09:56:03;;;;;;;;;;;;;;;;;;5041889;28;19917;-61
2022/03/19 09:58:28;;;;;;;;;;;;;;;;;;5057512;28;19909;-61
2022/03/19 10:00:53;;;;;;;;;;;;;;;;;;5056905;28;19913;-61
2022/03/19 10:03:23;;;;;;;;;;;;;;;;;;5057103;28;19908;-60
2022/03/19 10:08:43;;;;;;;;;;;;;;;;;;5057234;28;20270;-60
2022/03/19 10:11:08;;;;;;;;;;;;;;;;;;5056935;28;20003;-61
2022/03/19 10:13:34;;;;;;;;;;;;;;;;;;5057191;28;19992;-60
2022/03/19 10:16:00;;;;;;;;;;;;;;;;;;5039050;28;19912;-60
2022/03/19 10:18:25;;;;;;;;;;;;;;;;;;5056712;28;20238;-60
2022/03/19 10:20:50;;;;;;;;;;;;;;;;;;5056524;28;19908;-60
2022/03/19 10:23:15;;;;;;;;;;;;;;;;;;5038825;28;19912;-61
2022/03/19 10:25:42;;;;;;;;;;;;;;;;;;5056876;28;19904;-60
2022/03/19 10:28:11;;;;;;;;;;;;;;;;;;5038590;28;19919;-61
2022/03/19 10:30:36;;;;;;;;;;;;;;;;;;5056970;28;19908;-61
2022/03/19 10:33:02;;;;;;;;;;;;;;;;;;5022202;28;20042;-60
2022/03/19 10:35:27;;;;;;;;;;;;;;;;;;5056141;28;20000;-61
2022/03/19 10:37:52;;;;;;;;;;;;;;;;;;5037928;28;19909;-61
2022/03/19 10:40:18;;;;;;;;;;;;;;;;;;5038855;28;19904;-64
2022/03/19 10:42:43;;;;;;;;;;;;;;;;;;5056082;28;19943;-60
2022/03/19 10:45:08;;;;;;;;;;;;;;;;;;5056882;28;19909;-61
2022/03/19 10:47:34;;;;;;;;;;;;;;;;;;5038440;28;19913;-61
2022/03/19 10:49:59;;;;;;;;;;;;;;;;;;5038172;28;19956;-61
2022/03/19 10:52:25;;;;;;;;;;;;;;;;;;5021767;28;20238;-61
2022/03/19 10:54:51;;;;;;;;;;;;;;;;;;5056098;28;19909;-60
2022/03/19 10:57:16;;;;;;;;;;;;;;;;;;5055891;28;19908;-61
2022/03/19 10:59:41;;;;;;;;;;;;;;;;;;5055713;28;20250;-61
2022/03/19 11:02:06;;;;;;;;;;;;;;;;;;5055675;28;20269;-61
2022/03/19 11:04:32;;;;;;;;;;;;;;;;;;5056231;28;19943;-61
2022/03/19 11:06:58;;;;;;;;;;;;;;;;;;5053368;28;20011;-61
2022/03/19 11:09:23;;;;;;;;;;;;;;;;;;5046143;28;19951;-61
2022/03/19 11:11:49;;;;;;;;;;;;;;;;;;5018441;28;19941;-60
2022/03/19 11:14:19;;;;;;;;;;;;;;;;;;5047856;28;19909;-60
2022/03/19 11:17:23;;;;;;;;;;;;;;;;;;5055607;28;19919;-60
2022/03/19 11:19:29;;;;;;;;;;;;;;;;;;5037546;28;19909;-61
2022/03/19 11:21:54;;;;;;;;;;;;;;;;;;5054556;28;19954;-61
2022/03/19 11:24:23;;;;;;;;;;;;;;;;;;5055204;28;20292;-61
2022/03/19 11:26:48;;;;;;;;;;;;;;;;;;5055395;28;19908;-61
2022/03/19 11:29:13;;;;;;;;;;;;;;;;;;5055907;28;19913;-61
2022/03/19 11:31:39;;;;;;;;;;;;;;;;;;5054976;28;19916;-61
2022/03/19 11:34:05;;;;;;;;;;;;;;;;;;5054915;28;19931;-61
2022/03/19 11:36:30;;;;;;;;;;;;;;;;;;5054967;28;19908;-61
2022/03/19 11:38:56;;;;;;;;;;;;;;;;;;5054891;28;19963;-61
2022/03/19 11:41:22;;;;;;;;;;;;;;;;;;5055095;28;19962;-61
2022/03/19 11:43:47;;;;;;;;;;;;;;;;;;5054989;28;19999;-61
2022/03/19 11:46:13;;;;;;;;;;;;;;;;;;5054470;28;19909;-61
2022/03/19 11:48:38;;;;;;;;;;;;;;;;;;5053801;28;19966;-61
2022/03/19 11:51:03;;;;;;;;;;;;;;;;;;5036911;28;20000;-61
2022/03/19 11:53:29;;;;;;;;;;;;;;;;;;5055193;28;19909;-60
2022/03/19 11:55:54;;;;;;;;;;;;;;;;;;5055268;28;19912;-61
2022/03/19 11:58:19;;;;;;;;;;;;;;;;;;5055606;28;19905;-61
2022/03/19 12:00:45;;;;;;;;;;;;;;;;;;5053894;28;19958;-61
2022/03/19 12:03:24;;;;;;;;;;;;;;;;;;5037362;28;19909;-60
2022/03/19 12:05:49;;;;;;;;;;;;;;;;;;5036305;28;20362;-60
2022/03/19 12:08:15;;;;;;;;;;;;;;;;;;5050577;28;19974;-60
2022/03/19 12:10:41;;;;;;;;;;;;;;;;;;5052315;28;19912;-60
2022/03/19 12:13:06;;;;;;;;;;;;;;;;;;5034877;28;20269;-60
2022/03/19 12:15:31;;;;;;;;;;;;;;;;;;5050396;28;19913;-60
2022/03/19 12:17:56;;;;;;;;;;;;;;;;;;5054516;28;20400;-60
2022/03/19 12:20:23;;;;;;;;;;;;;;;;;;5054737;28;20292;-60
2022/03/19 12:22:48;;;;;;;;;;;;;;;;;;5055629;28;19912;-60
2022/03/19 12:25:13;;;;;;;;;;;;;;;;;;5052531;28;19939;-62
2022/03/19 12:27:39;;;;;;;;;;;;;;;;;;5054234;28;19935;-60
2022/03/19 12:30:05;;;;;;;;;;;;;;;;;;5054288;28;20385;-61
2022/03/19 12:32:30;;;;;;;;;;;;;;;;;;5054768;28;19904;-61
2022/03/19 12:34:56;;;;;;;;;;;;;;;;;;5054430;28;19909;-61
2022/03/19 12:37:21;;;;;;;;;;;;;;;;;;5054143;28;20042;-61
2022/03/19 12:39:46;;;;;;;;;;;;;;;;;;5054289;28;20261;-63
2022/03/19 12:42:11;;;;;;;;;;;;;;;;;;5054232;28;19962;-64
2022/03/19 12:44:38;;;;;;;;;;;;;;;;;;5051619;28;19912;-64
2022/03/19 12:47:03;;;;;;;;;;;;;;;;;;5054293;28;19919;-64
2022/03/19 12:49:28;;;;;;;;;;;;;;;;;;5036481;28;19912;-64
2022/03/19 12:51:53;;;;;;;;;;;;;;;;;;5036895;28;19905;-64
2022/03/19 12:54:19;;;;;;;;;;;;;;;;;;5054434;28;20257;-66
2022/03/19 12:56:45;;;;;;;;;;;;;;;;;;5053840;28;20246;-66
2022/03/19 12:59:11;;;;;;;;;;;;;;;;;;5054143;28;19908;-66
2022/03/19 13:01:36;;;;;;;;;;;;;;;;;;5035932;28;20258;-66
2022/03/19 13:04:01;;;;;;;;;;;;;;;;;;5019619;28;19935;-66
2022/03/19 13:06:27;;;;;;;;;;;;;;;;;;5036069;28;19935;-67
2022/03/19 13:08:52;;;;;;;;;;;;;;;;;;5019809;28;19955;-66
2022/03/19 13:11:17;;;;;;;;;;;;;;;;;;5053631;28;19920;-66
2022/03/19 13:13:43;;;;;;;;;;;;;;;;;;5053851;28;19916;-66
2022/03/19 13:16:08;;;;;;;;;;;;;;;;;;5053979;28;19921;-66
2022/03/19 13:18:37;;;;;;;;;;;;;;;;;;5053630;28;19912;-66
2022/03/19 13:21:02;;;;;;;;;;;;;;;;;;5054162;28;19909;-66
2022/03/19 13:23:27;;;;;;;;;;;;;;;;;;5053921;28;19908;-66
2022/03/19 13:25:52;;;;;;;;;;;;;;;;;;5053513;28;19962;-66
2022/03/19 13:28:18;;;;;;;;;;;;;;;;;;5053721;28;19927;-66
2022/03/19 13:30:46;;;;;;;;;;;;;;;;;;5053783;28;19920;-66
2022/03/19 13:33:11;;;;;;;;;;;;;;;;;;5053829;28;19909;-66
2022/03/19 13:35:39;;;;;;;;;;;;;;;;;;5054060;28;19944;-66
2022/03/19 13:38:04;;;;;;;;;;;;;;;;;;5053518;28;19951;-66
2022/03/19 13:40:29;;;;;;;;;;;;;;;;;;5035857;28;19948;-66
2022/03/19 13:42:55;;;;;;;;;;;;;;;;;;5053412;28;20007;-66
2022/03/19 13:45:20;;;;;;;;;;;;;;;;;;5054127;28;19905;-66
2022/03/19 13:47:50;;;;;;;;;;;;;;;;;;5050041;28;19955;-66
2022/03/19 13:50:15;;;;;;;;;;;;;;;;;;5033838;28;20308;-66
2022/03/19 13:52:41;;;;;;;;;;;;;;;;;;5033806;28;20004;-68
2022/03/19 13:55:07;;;;;;;;;;;;;;;;;;5015657;28;19909;-68
2022/03/19 13:57:32;;;;;;;;;;;;;;;;;;5033736;28;20257;-67
2022/03/19 13:59:57;;;;;;;;;;;;;;;;;;5031966;28;19959;-69
2022/03/19 14:02:22;;;;;;;;;;;;;;;;;;5034014;28;19963;-67
2022/03/19 14:04:47;;;;;;;;;;;;;;;;;;5016167;28;19940;-67
2022/03/19 14:07:13;;;;;;;;;;;;;;;;;;5033650;28;19964;-67
2022/03/19 14:09:38;;;;;;;;;;;;;;;;;;5016059;28;19964;-67
2022/03/19 14:12:03;;;;;;;;;;;;;;;;;;5033984;28;19909;-67
2022/03/19 14:14:28;;;;;;;;;;;;;;;;;;5036985;28;19909;-67
2022/03/19 14:16:53;;;;;;;;;;;;;;;;;;5038086;28;19913;-67
2022/03/19 14:19:19;;;;;;;;;;;;;;;;;;5019262;28;19905;-67
2022/03/19 14:21:44;;;;;;;;;;;;;;;;;;5015395;28;19909;-68
2022/03/19 14:24:09;;;;;;;;;;;;;;;;;;5036857;28;20342;-67
2022/03/19 14:26:34;;;;;;;;;;;;;;;;;;5034723;28;19913;-67
2022/03/19 14:29:00;;;;;;;;;;;;;;;;;;5037180;28;19913;-67
2022/03/19 14:31:25;;;;;;;;;;;;;;;;;;5042064;28;19909;-67
2022/03/19 14:33:50;;;;;;;;;;;;;;;;;;5039049;28;20303;-67
2022/03/19 14:36:15;;;;;;;;;;;;;;;;;;5038686;28;19916;-67
2022/03/19 14:38:41;;;;;;;;;;;;;;;;;;5056780;28;20003;-67
2022/03/19 14:41:07;;;;;;;;;;;;;;;;;;5056424;28;20258;-67
2022/03/19 14:43:33;;;;;;;;;;;;;;;;;;5038753;28;19996;-68
2022/03/19 14:45:58;;;;;;;;;;;;;;;;;;5056938;28;20016;-67
2022/03/19 14:48:23;;;;;;;;;;;;;;;;;;5051713;28;19920;-67
2022/03/19 14:50:48;;;;;;;;;;;;;;;;;;5038608;28;19919;-67
2022/03/19 14:53:13;;;;;;;;;;;;;;;;;;5039037;28;20226;-67
2022/03/19 14:55:39;;;;;;;;;;;;;;;;;;5056351;28;20261;-67
2022/03/19 14:58:06;;;;;;;;;;;;;;;;;;5056795;28;19954;-67
2022/03/19 15:00:32;;;;;;;;;;;;;;;;;;5056510;28;19987;-66
2022/03/19 15:02:57;;;;;;;;;;;;;;;;;;5036374;28;19909;-67
2022/03/19 15:05:23;;;;;;;;;;;;;;;;;;5054108;28;20242;-67
2022/03/19 15:07:48;;;;;;;;;;;;;;;;;;5038403;28;19931;-67
2022/03/19 15:10:13;;;;;;;;;;;;;;;;;;5050040;28;19913;-67
2022/03/19 15:12:39;;;;;;;;;;;;;;;;;;5036252;28;19909;-67
2022/03/19 15:15:04;;;;;;;;;;;;;;;;;;5036002;28;19909;-67
2022/03/19 15:17:30;;;;;;;;;;;;;;;;;;5036717;28;19913;-67
2022/03/19 15:19:55;;;;;;;;;;;;;;;;;;5035733;28;19909;-67
2022/03/19 15:22:20;;;;;;;;;;;;;;;;;;5035712;28;19917;-67
2022/03/19 15:24:45;;;;;;;;;;;;;;;;;;5017105;28;19906;-67
2022/03/19 15:27:11;;;;;;;;;;;;;;;;;;5035881;28;20008;-67
2022/03/19 15:29:37;;;;;;;;;;;;;;;;;;5035853;28;19913;-67
2022/03/19 15:32:02;;;;;;;;;;;;;;;;;;5035577;28;20357;-67
2022/03/19 15:34:27;;;;;;;;;;;;;;;;;;5018107;28;19909;-67
2022/03/19 15:36:52;;;;;;;;;;;;;;;;;;5018330;28;19905;-67
2022/03/19 15:39:17;;;;;;;;;;;;;;;;;;5017774;28;19920;-67
2022/03/19 15:41:45;;;;;;;;;;;;;;;;;;5033585;28;19944;-67
2022/03/19 15:44:11;;;;;;;;;;;;;;;;;;5035289;28;20293;-67
2022/03/19 15:46:36;;;;;;;;;;;;;;;;;;5035473;28;19925;-67
2022/03/19 15:49:03;;;;;;;;;;;;;;;;;;5035492;28;19913;-67
2022/03/19 15:51:28;;;;;;;;;;;;;;;;;;5047822;28;19913;-67
2022/03/19 15:53:53;;;;;;;;;;;;;;;;;;5055288;28;19913;-67
2022/03/19 15:56:18;;;;;;;;;;;;;;;;;;5054986;28;20275;-68
2022/03/19 15:58:44;;;;;;;;;;;;;;;;;;5055108;28;19909;-68
2022/03/19 16:01:09;;;;;;;;;;;;;;;;;;5054910;28;19996;-67
2022/03/19 16:03:34;;;;;;;;;;;;;;;;;;5045508;28;19909;-67
2022/03/19 16:05:59;;;;;;;;;;;;;;;;;;5034854;28;20261;-68
2022/03/19 16:08:24;;;;;;;;;;;;;;;;;;5034961;28;20342;-67
2022/03/19 16:10:50;;;;;;;;;;;;;;;;;;5034756;28;19909;-70
2022/03/19 16:13:15;;;;;;;;;;;;;;;;;;5035009;28;20011;-67
2022/03/19 16:15:40;;;;;;;;;;;;;;;;;;5017367;28;19953;-68
2022/03/19 16:18:05;;;;;;;;;;;;;;;;;;5034587;28;20281;-68
2022/03/19 16:20:31;;;;;;;;;;;;;;;;;;5034844;28;19905;-68
2022/03/19 16:22:56;;;;;;;;;;;;;;;;;;5034966;28;19952;-67
2022/03/19 16:25:21;;;;;;;;;;;;;;;;;;5034561;28;19909;-67
2022/03/19 16:27:49;;;;;;;;;;;;;;;;;;5032640;28;19966;-69
2022/03/19 16:30:14;;;;;;;;;;;;;;;;;;5054335;28;19909;-68
2022/03/19 16:32:42;;;;;;;;;;;;;;;;;;5054526;28;19909;-68
2022/03/19 16:35:07;;;;;;;;;;;;;;;;;;5054372;28;19909;-68
2022/03/19 16:37:32;;;;;;;;;;;;;;;;;;5054439;28;19962;-68
2022/03/19 16:39:57;;;;;;;;;;;;;;;;;;5036518;28;19919;-68
2022/03/19 16:42:23;;;;;;;;;;;;;;;;;;5036612;28;20358;-69
2022/03/19 16:44:48;;;;;;;;;;;;;;;;;;5054282;28;19951;-68